Time;durP1;ratioP1;P1;durP2;ratioP2;P2;SDS_P1;SDS_P2;PMS_P1;PMS_P2;Temp;Humidity;BMP_temperature;BMP_pressure;BME280_temperature;BME280_humidity;BME280_pressure;Samples;Min_cycle;Max_cycle;Signal;HPM_P1;HPM_P2
2023/12/17 00:01:07;;;;;;;45.50;30.88;;;1.70;99.90;;;;;;5054217;28;20017;-59
2023/12/17 00:03:33;;;;;;;56.50;36.60;;;1.70;99.90;;;;;;5053928;28;20023;-64
2023/12/17 00:05:58;;;;;;;56.42;36.60;;;1.70;99.90;;;;;;5053819;28;20029;-65
2023/12/17 00:08:25;;;;;;;55.53;33.45;;;1.70;99.90;;;;;;5053773;28;20047;-69
2023/12/17 00:10:51;;;;;;;45.45;31.30;;;1.70;99.90;;;;;;5053912;28;20021;-61
2023/12/17 00:13:18;;;;;;;47.90;31.55;;;1.70;99.90;;;;;;5052350;28;20045;-63
2023/12/17 00:15:44;;;;;;;48.15;33.05;;;1.60;99.90;;;;;;5053580;28;20021;-67
2023/12/17 00:18:12;;;;;;;37.70;26.67;;;1.60;99.90;;;;;;5053642;28;20028;-63
2023/12/17 00:20:38;;;;;;;43.40;27.30;;;1.60;99.90;;;;;;5053670;28;20020;-60
2023/12/17 00:23:04;;;;;;;43.35;26.77;;;1.50;99.90;;;;;;5053860;28;20021;-62
2023/12/17 00:25:33;;;;;;;35.92;25.77;;;1.50;99.90;;;;;;5053490;28;20039;-64
2023/12/17 00:27:59;;;;;;;37.53;23.98;;;1.50;99.90;;;;;;5052906;28;20032;-66
2023/12/17 00:30:24;;;;;;;36.50;23.25;;;1.50;99.90;;;;;;5053444;28;20021;-62
2023/12/17 00:32:50;;;;;;;34.83;23.08;;;1.50;99.90;;;;;;5053513;28;20040;-68
2023/12/17 00:35:16;;;;;;;32.85;23.23;;;1.40;99.90;;;;;;5053490;28;20017;-68
2023/12/17 00:37:42;;;;;;;43.75;27.70;;;1.40;99.90;;;;;;5052332;28;20033;-63
2023/12/17 00:40:08;;;;;;;34.70;23.33;;;1.40;99.90;;;;;;5053344;28;20028;-65
2023/12/17 00:42:34;;;;;;;41.75;26.15;;;1.40;99.90;;;;;;5053185;28;20049;-67
2023/12/17 00:44:59;;;;;;;34.30;23.27;;;1.40;99.90;;;;;;5053203;28;20032;-69
2023/12/17 00:47:25;;;;;;;32.40;22.33;;;1.30;99.90;;;;;;5053251;28;20083;-68
2023/12/17 00:49:52;;;;;;;28.48;19.98;;;1.40;99.90;;;;;;5053377;28;20052;-64
2023/12/17 00:52:20;;;;;;;32.10;20.75;;;1.30;99.90;;;;;;5053296;28;20013;-70
2023/12/17 00:54:46;;;;;;;28.60;19.85;;;1.30;99.90;;;;;;5053489;28;20396;-68
2023/12/17 00:57:12;;;;;;;30.95;20.90;;;1.40;99.90;;;;;;5052563;28;20052;-59
2023/12/17 00:59:37;;;;;;;27.08;19.92;;;1.30;99.90;;;;;;5053159;28;20044;-63
2023/12/17 01:02:03;;;;;;;34.83;21.33;;;1.30;99.90;;;;;;5053028;28;20487;-67
2023/12/17 01:04:29;;;;;;;42.33;26.95;;;1.30;99.90;;;;;;5053060;28;20044;-59
2023/12/17 01:06:55;;;;;;;38.97;25.52;;;1.30;99.90;;;;;;5053058;28;20100;-63
2023/12/17 01:09:20;;;;;;;33.05;22.63;;;1.30;99.90;;;;;;5052982;28;20025;-65
2023/12/17 01:11:46;;;;;;;40.38;25.15;;;1.30;99.90;;;;;;5051523;28;20017;-61
2023/12/17 01:14:12;;;;;;;44.72;28.55;;;1.30;99.90;;;;;;5052994;28;20025;-65
2023/12/17 01:16:37;;;;;;;34.15;21.48;;;1.30;99.90;;;;;;5052916;28;20497;-66
2023/12/17 01:19:03;;;;;;;30.98;20.75;;;1.20;99.90;;;;;;5053045;28;20090;-68
2023/12/17 01:21:29;;;;;;;27.67;19.23;;;1.20;99.90;;;;;;5052922;28;20025;-66
2023/12/17 01:23:57;;;;;;;30.40;20.55;;;1.20;99.90;;;;;;5052931;28;20017;-62
2023/12/17 01:26:23;;;;;;;24.85;18.15;;;1.20;99.90;;;;;;5052743;28;20494;-62
2023/12/17 01:28:52;;;;;;;26.30;18.45;;;1.20;99.90;;;;;;5052880;28;20029;-63
2023/12/17 01:31:18;;;;;;;25.55;18.73;;;1.20;99.90;;;;;;5052983;28;20402;-61
2023/12/17 01:33:44;;;;;;;23.90;17.45;;;1.20;99.90;;;;;;5053089;28;20021;-66
2023/12/17 01:36:10;;;;;;;27.35;19.58;;;1.10;99.90;;;;;;5053361;28;20017;-68
2023/12/17 01:38:36;;;;;;;48.83;33.05;;;1.20;99.90;;;;;;5052879;28;20100;-61
2023/12/17 01:41:01;;;;;;;45.75;29.63;;;1.20;99.90;;;;;;5055681;28;20075;-63
2023/12/17 01:43:28;;;;;;;43.85;29.73;;;1.20;99.90;;;;;;5056566;28;20100;-62
2023/12/17 01:45:54;;;;;;;39.15;26.02;;;1.10;99.90;;;;;;5056617;28;20021;-66
2023/12/17 01:48:25;;;;;;;36.15;26.30;;;1.00;99.90;;;;;;5056397;28;20025;-62
2023/12/17 01:50:52;;;;;;;36.83;24.60;;;1.00;99.90;;;;;;5056782;28;20025;-65
2023/12/17 01:53:17;;;;;;;35.42;24.75;;;1.00;99.90;;;;;;5056395;28;20048;-65
2023/12/17 01:55:46;;;;;;;31.10;23.35;;;1.00;99.90;;;;;;5056138;28;20475;-66
2023/12/17 01:58:14;;;;;;;29.65;20.48;;;1.00;99.90;;;;;;5054789;28;20041;-63
2023/12/17 02:00:40;;;;;;;35.28;23.67;;;1.00;99.90;;;;;;5056306;28;20033;-68
2023/12/17 02:03:06;;;;;;;29.65;20.02;;;1.00;99.90;;;;;;5056444;28;20021;-63
2023/12/17 02:05:33;;;;;;;31.42;20.52;;;0.90;99.90;;;;;;5056331;28;20486;-66
2023/12/17 02:07:59;;;;;;;26.48;18.73;;;0.90;99.90;;;;;;5054901;28;20086;-68
2023/12/17 02:10:26;;;;;;;25.45;18.58;;;0.90;99.90;;;;;;5055909;28;20044;-64
2023/12/17 02:12:51;;;;;;;24.65;17.13;;;0.80;99.90;;;;;;5056068;28;20068;-68
2023/12/17 02:15:17;;;;;;;27.60;19.17;;;0.80;99.90;;;;;;5056067;28;20048;-65
2023/12/17 02:17:43;;;;;;;25.70;17.02;;;0.80;99.90;;;;;;5055916;28;20052;-66
2023/12/17 02:20:09;;;;;;;22.88;16.88;;;0.80;99.90;;;;;;5055959;28;20474;-61
2023/12/17 02:22:36;;;;;;;21.33;16.55;;;0.80;99.90;;;;;;5055891;28;20103;-63
2023/12/17 02:25:03;;;;;;;23.90;16.45;;;0.80;99.90;;;;;;5055654;28;20099;-62
2023/12/17 02:27:28;;;;;;;23.23;17.15;;;0.80;99.90;;;;;;5055885;28;20108;-58
2023/12/17 02:29:55;;;;;;;24.40;17.63;;;0.80;99.90;;;;;;5055814;28;20148;-59
2023/12/17 02:32:22;;;;;;;25.73;17.00;;;0.80;99.90;;;;;;5055691;28;20378;-66
2023/12/17 02:34:48;;;;;;;41.03;28.60;;;0.80;99.90;;;;;;5055825;28;20379;-68
2023/12/17 02:37:15;;;;;;;28.55;19.63;;;0.70;99.90;;;;;;5055917;28;20025;-66
2023/12/17 02:39:41;;;;;;;27.27;18.92;;;0.70;99.90;;;;;;5055289;28;20019;-67
2023/12/17 02:42:07;;;;;;;22.88;16.58;;;0.70;99.90;;;;;;5055651;28;20099;-62
2023/12/17 02:44:33;;;;;;;22.80;16.35;;;0.70;99.90;;;;;;5055625;28;20021;-65
2023/12/17 02:46:58;;;;;;;22.75;16.00;;;0.70;99.90;;;;;;5055300;28;20500;-63
2023/12/17 02:49:24;;;;;;;21.08;15.27;;;0.70;99.90;;;;;;5055360;28;20036;-69
2023/12/17 02:51:51;;;;;;;20.77;15.02;;;0.70;99.90;;;;;;5055040;28;20025;-61
2023/12/17 02:54:18;;;;;;;17.63;13.98;;;0.70;99.90;;;;;;5055185;28;20043;-58
2023/12/17 02:56:44;;;;;;;17.88;12.95;;;0.70;99.90;;;;;;5054950;28;20045;-66
2023/12/17 02:59:11;;;;;;;30.20;20.73;;;0.70;99.90;;;;;;5055286;28;20390;-65
2023/12/17 03:01:37;;;;;;;21.95;15.85;;;0.60;99.90;;;;;;5055200;28;20086;-62
2023/12/17 03:04:03;;;;;;;18.67;13.80;;;0.60;99.90;;;;;;5055116;28;20554;-62
2023/12/17 03:06:29;;;;;;;19.77;12.80;;;0.50;99.90;;;;;;5055065;28;20025;-62
2023/12/17 03:08:55;;;;;;;19.00;13.40;;;0.50;99.90;;;;;;5054783;28;20368;-63
2023/12/17 03:11:21;;;;;;;18.48;13.65;;;0.50;99.90;;;;;;5054952;28;20435;-63
2023/12/17 03:13:47;;;;;;;16.45;12.93;;;0.50;99.90;;;;;;5054879;28;20383;-60
2023/12/17 03:16:13;;;;;;;15.82;11.10;;;0.50;99.90;;;;;;5054849;28;20017;-62
2023/12/17 03:18:38;;;;;;;19.95;13.73;;;0.60;99.90;;;;;;5054758;28;20390;-67
2023/12/17 03:21:06;;;;;;;17.50;12.27;;;0.60;99.90;;;;;;5054808;28;20029;-67
2023/12/17 03:23:32;;;;;;;15.13;11.68;;;0.50;99.90;;;;;;5054601;28;20021;-69
2023/12/17 03:25:57;;;;;;;17.65;12.02;;;0.50;99.90;;;;;;5054748;28;20485;-66
2023/12/17 03:28:23;;;;;;;22.85;14.70;;;0.60;99.90;;;;;;5054556;28;20112;-64
2023/12/17 03:30:49;;;;;;;19.48;13.95;;;0.60;99.90;;;;;;5054749;28;20470;-62
2023/12/17 03:33:14;;;;;;;17.63;12.20;;;0.60;99.90;;;;;;5054622;28;20068;-59
2023/12/17 03:35:40;;;;;;;20.00;12.52;;;0.60;99.90;;;;;;5054408;28;20022;-65
2023/12/17 03:38:06;;;;;;;26.73;17.52;;;0.50;99.90;;;;;;5054238;28;20032;-69
2023/12/17 03:40:32;;;;;;;26.70;17.75;;;0.50;99.90;;;;;;5054461;28;20025;-67
2023/12/17 03:42:58;;;;;;;27.02;17.73;;;0.40;99.90;;;;;;5054350;28;20425;-63
2023/12/17 03:45:23;;;;;;;27.77;18.52;;;0.40;99.90;;;;;;5054452;28;20025;-61
2023/12/17 03:47:49;;;;;;;50.10;31.20;;;0.40;99.90;;;;;;5054284;28;20036;-67
2023/12/17 03:50:16;;;;;;;29.30;21.40;;;0.40;99.90;;;;;;5054206;28;20490;-64
2023/12/17 03:52:43;;;;;;;22.48;16.88;;;0.30;99.90;;;;;;5054026;28;20017;-64
2023/12/17 03:55:09;;;;;;;26.83;17.88;;;0.30;99.90;;;;;;5054130;28;20017;-64
2023/12/17 03:57:34;;;;;;;27.33;19.20;;;0.30;99.90;;;;;;5053752;28;20033;-62
2023/12/17 04:00:03;;;;;;;34.75;22.85;;;0.30;99.90;;;;;;5054111;28;20025;-66
2023/12/17 04:02:29;;;;;;;33.63;22.85;;;0.30;99.90;;;;;;5053308;28;20025;-70
2023/12/17 04:04:55;;;;;;;24.10;16.92;;;0.20;99.90;;;;;;5053738;28;20021;-68
2023/12/17 04:07:20;;;;;;;28.33;17.70;;;0.20;99.90;;;;;;5053729;28;20033;-67
2023/12/17 04:09:46;;;;;;;27.33;18.60;;;0.20;99.90;;;;;;5053988;28;20203;-63
2023/12/17 04:12:12;;;;;;;20.38;13.80;;;0.20;99.90;;;;;;5053870;28;20021;-63
2023/12/17 04:14:38;;;;;;;20.20;13.90;;;0.20;99.90;;;;;;5053654;28;20031;-65
2023/12/17 04:17:04;;;;;;;20.52;13.77;;;0.20;99.90;;;;;;5053817;28;20101;-66
2023/12/17 04:19:30;;;;;;;16.95;13.25;;;0.20;99.90;;;;;;5053672;28;20100;-63
2023/12/17 04:21:55;;;;;;;19.75;13.38;;;0.20;99.90;;;;;;5053403;28;20029;-68
2023/12/17 04:24:21;;;;;;;23.05;16.80;;;0.10;99.90;;;;;;5053642;28;20028;-68
2023/12/17 04:26:47;;;;;;;21.08;15.57;;;0.10;99.90;;;;;;5053674;28;20530;-66
2023/12/17 04:29:13;;;;;;;20.23;14.45;;;0.00;99.90;;;;;;5053328;28;20032;-67
2023/12/17 04:31:38;;;;;;;17.92;12.27;;;0.00;99.90;;;;;;5053567;28;20475;-65
2023/12/17 04:34:04;;;;;;;17.45;12.13;;;0.00;99.90;;;;;;5053493;28;20048;-69
2023/12/17 04:36:29;;;;;;;18.40;12.73;;;0.10;99.90;;;;;;5053107;28;20024;-67
2023/12/17 04:38:55;;;;;;;18.13;12.93;;;0.10;99.90;;;;;;5053454;28;20025;-66
2023/12/17 04:41:21;;;;;;;14.75;11.40;;;0.10;99.90;;;;;;5053410;28;20100;-63
2023/12/17 04:43:47;;;;;;;20.73;13.93;;;0.10;99.90;;;;;;5053509;28;20382;-67
2023/12/17 04:46:13;;;;;;;14.93;11.75;;;0.10;99.90;;;;;;5053210;28;20422;-65
2023/12/17 04:48:38;;;;;;;14.32;10.70;;;0.10;99.90;;;;;;5053105;28;20558;-61
2023/12/17 04:51:05;;;;;;;16.10;11.30;;;0.10;99.90;;;;;;5053194;28;20017;-65
2023/12/17 04:53:31;;;;;;;25.30;18.77;;;0.10;99.90;;;;;;5053100;28;20028;-69
2023/12/17 04:55:56;;;;;;;17.70;13.27;;;0.10;99.90;;;;;;5053417;28;20471;-65
2023/12/17 04:58:23;;;;;;;19.60;14.32;;;0.00;99.90;;;;;;5052840;28;20175;-66
2023/12/17 05:00:49;;;;;;;22.50;15.13;;;0.00;99.90;;;;;;5053063;28;20025;-67
2023/12/17 05:03:14;;;;;;;20.35;14.45;;;-0.10;99.90;;;;;;5053173;28;20021;-63
2023/12/17 05:05:40;;;;;;;15.82;11.82;;;-0.10;99.90;;;;;;5053105;28;20032;-65
2023/12/17 05:08:06;;;;;;;23.33;16.67;;;-0.10;99.90;;;;;;5053017;28;20109;-67
2023/12/17 05:10:32;;;;;;;20.02;14.30;;;0.00;99.90;;;;;;5053129;28;20025;-66
2023/12/17 05:12:57;;;;;;;22.00;15.13;;;-0.10;99.90;;;;;;5053067;28;20501;-63
2023/12/17 05:15:23;;;;;;;18.95;12.63;;;-0.10;99.90;;;;;;5056938;28;20123;-63
2023/12/17 05:17:49;;;;;;;19.45;13.50;;;-0.10;99.90;;;;;;5056949;28;20398;-68
2023/12/17 05:20:14;;;;;;;17.17;12.15;;;-0.10;99.90;;;;;;5057159;28;20103;-62
2023/12/17 05:22:40;;;;;;;18.67;12.45;;;-0.10;99.90;;;;;;5057061;28;20078;-68
2023/12/17 05:25:07;;;;;;;17.88;12.27;;;0.00;99.90;;;;;;5056936;28;20028;-64
2023/12/17 05:27:33;;;;;;;18.13;13.27;;;-0.10;99.90;;;;;;5056923;28;20029;-65
2023/12/17 05:29:58;;;;;;;16.63;11.50;;;0.00;99.90;;;;;;5057199;28;20029;-61
2023/12/17 05:32:24;;;;;;;19.60;13.45;;;0.00;99.90;;;;;;5056572;28;20029;-68
2023/12/17 05:34:50;;;;;;;19.33;13.05;;;0.00;99.90;;;;;;5056939;28;20017;-67
2023/12/17 05:37:16;;;;;;;18.27;12.73;;;0.00;99.90;;;;;;5057015;28;20032;-64
2023/12/17 05:39:41;;;;;;;18.38;13.10;;;-0.10;99.90;;;;;;5056664;28;20082;-66
2023/12/17 05:42:07;;;;;;;23.35;16.08;;;-0.10;99.90;;;;;;5056640;28;20028;-64
2023/12/17 05:44:33;;;;;;;16.88;12.43;;;-0.20;99.90;;;;;;5056588;28;20044;-70
2023/12/17 05:46:58;;;;;;;15.38;11.18;;;-0.20;99.90;;;;;;5056495;28;20098;-66
2023/12/17 05:49:24;;;;;;;16.80;11.48;;;-0.20;99.90;;;;;;5056336;28;20387;-71
2023/12/17 05:51:50;;;;;;;15.90;10.70;;;-0.20;99.90;;;;;;5056535;28;20036;-68
2023/12/17 05:54:16;;;;;;;15.57;10.90;;;-0.20;99.90;;;;;;5056746;28;20017;-72
2023/12/17 05:56:42;;;;;;;23.73;15.98;;;-0.20;99.90;;;;;;5056035;28;20059;-68
2023/12/17 05:59:08;;;;;;;23.75;14.93;;;-0.20;99.90;;;;;;5056388;28;20021;-64
2023/12/17 06:01:34;;;;;;;17.02;11.02;;;-0.20;99.90;;;;;;5056206;28;20067;-67
2023/12/17 06:04:00;;;;;;;14.40;10.50;;;-0.30;99.90;;;;;;5056283;28;20033;-64
2023/12/17 06:06:26;;;;;;;15.48;10.43;;;-0.30;99.90;;;;;;5056339;28;20021;-69
2023/12/17 06:08:52;;;;;;;15.48;10.00;;;-0.30;99.90;;;;;;5056086;28;20025;-68
2023/12/17 06:11:18;;;;;;;21.95;14.15;;;-0.30;99.90;;;;;;5054770;28;20025;-63
2023/12/17 06:13:45;;;;;;;21.00;14.90;;;-0.30;99.90;;;;;;5056114;28;20021;-68
2023/12/17 06:16:11;;;;;;;15.93;11.38;;;-0.30;99.90;;;;;;5055887;28;20021;-70
2023/12/17 06:18:38;;;;;;;21.83;15.02;;;-0.30;99.90;;;;;;5055878;28;20029;-66
2023/12/17 06:21:05;;;;;;;26.55;15.48;;;-0.30;99.90;;;;;;5055982;28;20423;-69
2023/12/17 06:23:31;;;;;;;17.45;12.55;;;-0.30;99.90;;;;;;5055930;28;20028;-67
2023/12/17 06:25:57;;;;;;;18.52;12.27;;;-0.30;99.90;;;;;;5055120;28;20107;-67
2023/12/17 06:28:25;;;;;;;18.92;12.73;;;-0.30;99.90;;;;;;5055751;28;20431;-63
2023/12/17 06:30:51;;;;;;;19.23;14.07;;;-0.20;99.90;;;;;;5055857;28;20021;-71
2023/12/17 06:33:17;;;;;;;17.42;12.48;;;-0.30;99.90;;;;;;5055636;28;20025;-70
2023/12/17 06:35:44;;;;;;;18.88;12.80;;;-0.20;99.90;;;;;;5055651;28;20158;-63
2023/12/17 06:38:10;;;;;;;23.05;15.57;;;-0.20;99.90;;;;;;5055677;28;20585;-65
2023/12/17 06:40:36;;;;;;;27.25;18.58;;;-0.20;99.90;;;;;;5055594;28;20104;-65
2023/12/17 06:43:02;;;;;;;21.38;14.68;;;-0.20;99.90;;;;;;5055517;28;20063;-67
2023/12/17 06:45:28;;;;;;;17.40;13.27;;;-0.20;99.90;;;;;;5055328;28;20032;-61
2023/12/17 06:47:54;;;;;;;17.25;12.75;;;-0.20;99.90;;;;;;5055422;28;20078;-63
2023/12/17 06:50:20;;;;;;;17.83;12.90;;;-0.20;99.90;;;;;;5055387;28;20029;-65
2023/12/17 06:52:45;;;;;;;19.40;13.32;;;-0.20;99.90;;;;;;5055273;28;20056;-60
2023/12/17 06:55:11;;;;;;;18.50;13.25;;;-0.20;99.90;;;;;;5055432;28;20469;-69
2023/12/17 06:57:37;;;;;;;21.00;14.35;;;-0.10;99.90;;;;;;5053574;28;20037;-67
2023/12/17 07:00:03;;;;;;;23.70;15.15;;;0.00;99.90;;;;;;5053846;28;20021;-71
2023/12/17 07:02:29;;;;;;;16.70;11.85;;;0.00;99.90;;;;;;5055264;28;20387;-62
2023/12/17 07:04:54;;;;;;;16.45;13.07;;;0.00;99.90;;;;;;5055031;28;20021;-64
2023/12/17 07:07:20;;;;;;;22.95;15.90;;;0.00;99.70;;;;;;5055118;28;20087;-68
2023/12/17 07:09:46;;;;;;;22.92;15.68;;;0.00;99.60;;;;;;5055186;28;20021;-68
2023/12/17 07:12:11;;;;;;;22.95;14.93;;;0.00;99.80;;;;;;5054978;28;20127;-66
2023/12/17 07:14:37;;;;;;;21.58;15.00;;;0.00;99.90;;;;;;5054765;28;20021;-71
2023/12/17 07:17:03;;;;;;;24.65;17.08;;;0.00;99.90;;;;;;5055026;28;20029;-60
2023/12/17 07:19:28;;;;;;;23.75;15.38;;;0.10;99.90;;;;;;5054948;28;20033;-62
2023/12/17 07:21:54;;;;;;;30.02;19.13;;;0.10;99.90;;;;;;5054921;28;20021;-66
2023/12/17 07:24:20;;;;;;;22.23;14.70;;;0.10;99.90;;;;;;5054846;28;20472;-66
2023/12/17 07:26:48;;;;;;;23.20;15.48;;;0.20;99.90;;;;;;5054838;28;20064;-66
2023/12/17 07:29:14;;;;;;;19.70;14.50;;;0.20;99.90;;;;;;5054381;28;20037;-61
2023/12/17 07:31:39;;;;;;;20.92;15.38;;;0.30;99.90;;;;;;5054702;28;20029;-70
2023/12/17 07:34:05;;;;;;;18.75;13.38;;;0.30;99.90;;;;;;5054588;28;20071;-65
2023/12/17 07:36:30;;;;;;;16.70;12.50;;;0.40;99.90;;;;;;5053974;28;20100;-67
2023/12/17 07:38:56;;;;;;;37.95;25.15;;;0.40;99.90;;;;;;5053990;28;20537;-67
2023/12/17 07:41:22;;;;;;;95.57;62.88;;;0.60;99.90;;;;;;5053363;28;20043;-67
2023/12/17 07:43:47;;;;;;;55.30;38.58;;;1.00;99.00;;;;;;5054129;28;20028;-69
2023/12/17 07:46:13;;;;;;;52.63;37.92;;;1.40;98.80;;;;;;5054805;28;20060;-69
2023/12/17 07:48:39;;;;;;;53.28;37.28;;;1.80;97.80;;;;;;5054229;28;20360;-65
2023/12/17 07:51:05;;;;;;;64.57;43.28;;;2.40;96.10;;;;;;5052897;28;20029;-68
2023/12/17 07:53:30;;;;;;;47.88;35.00;;;3.50;93.90;;;;;;5054082;28;20471;-70
2023/12/17 07:55:57;;;;;;;53.47;40.88;;;5.50;83.20;;;;;;5054154;28;20021;-60
2023/12/17 07:58:28;;;;;;;67.43;46.45;;;7.20;63.80;;;;;;5053645;28;20087;-67
2023/12/17 08:00:54;;;;;;;57.85;43.10;;;8.40;55.10;;;;;;5053994;28;20032;-62
2023/12/17 08:03:23;;;;;;;66.10;47.47;;;9.40;50.60;;;;;;5053932;28;20021;-68
2023/12/17 08:05:49;;;;;;;94.47;67.88;;;10.00;47.00;;;;;;5052680;28;20067;-66
2023/12/17 08:08:15;;;;;;;92.45;66.90;;;10.40;44.80;;;;;;5053725;28;20475;-64
2023/12/17 08:10:41;;;;;;;98.10;74.72;;;10.50;45.00;;;;;;5053893;28;20028;-66
2023/12/17 08:13:07;;;;;;;89.45;66.45;;;10.80;44.10;;;;;;5053595;28;20025;-67
2023/12/17 08:15:33;;;;;;;84.90;65.65;;;11.10;44.10;;;;;;5053682;28;20087;-67
2023/12/17 08:17:58;;;;;;;137.70;103.68;;;11.30;43.30;;;;;;5053724;28;20021;-65
2023/12/17 08:20:24;;;;;;;110.22;83.10;;;11.30;41.90;;;;;;5053644;28;20387;-63
2023/12/17 08:22:50;;;;;;;101.60;79.57;;;11.30;43.20;;;;;;5053497;28;20025;-64
2023/12/17 08:25:15;;;;;;;97.47;73.85;;;12.00;43.20;;;;;;5053614;28;20379;-67
2023/12/17 08:27:41;;;;;;;98.63;72.22;;;12.90;40.20;;;;;;5053302;28;20479;-61
2023/12/17 08:30:07;;;;;;;94.50;73.15;;;12.90;38.80;;;;;;5053485;28;20025;-63
2023/12/17 08:32:33;;;;;;;84.80;64.95;;;12.80;38.60;;;;;;5053673;28;20025;-63
2023/12/17 08:35:00;;;;;;;177.15;125.05;;;12.70;39.00;;;;;;5053522;28;20039;-66
2023/12/17 08:37:26;;;;;;;182.80;138.07;;;12.40;39.70;;;;;;5053363;28;20051;-67
2023/12/17 08:39:57;;;;;;;185.50;138.05;;;11.80;40.00;;;;;;5053287;28;20079;-62
2023/12/17 08:42:23;;;;;;;143.45;114.50;;;11.30;41.90;;;;;;5053094;28;20017;-63
2023/12/17 08:44:49;;;;;;;144.38;111.90;;;11.10;42.90;;;;;;5053535;28;20024;-67
2023/12/17 08:47:15;;;;;;;121.40;95.45;;;11.20;44.40;;;;;;5053141;28;20051;-63
2023/12/17 08:49:41;;;;;;;100.75;82.28;;;11.50;44.50;;;;;;5052867;28;20017;-63
2023/12/17 08:52:07;;;;;;;105.65;85.32;;;11.80;44.00;;;;;;5053468;28;20484;-59
2023/12/17 08:54:33;;;;;;;88.13;68.85;;;11.90;43.20;;;;;;5053091;28;20021;-65
2023/12/17 08:56:58;;;;;;;83.93;68.28;;;11.60;42.60;;;;;;5052606;28;20053;-62
2023/12/17 08:59:25;;;;;;;82.32;67.30;;;11.10;44.70;;;;;;5053301;28;20411;-69
2023/12/17 09:01:51;;;;;;;72.22;60.50;;;10.60;46.30;;;;;;5052964;28;20021;-63
2023/12/17 09:04:17;;;;;;;67.93;55.95;;;10.60;46.50;;;;;;5053084;28;20103;-64
2023/12/17 09:06:47;;;;;;;64.65;52.60;;;10.80;45.80;;;;;;5052945;28;20059;-67
2023/12/17 09:09:14;;;;;;;54.80;46.45;;;11.10;45.80;;;;;;5052823;28;20399;-59
2023/12/17 09:11:40;;;;;;;48.22;42.17;;;11.30;44.90;;;;;;5052786;28;20017;-64
2023/12/17 09:14:07;;;;;;;42.85;36.85;;;11.50;44.80;;;;;;5053008;28;20049;-65
2023/12/17 09:16:34;;;;;;;35.60;31.80;;;11.50;44.90;;;;;;5052853;28;20017;-63
2023/12/17 09:19:00;;;;;;;35.55;30.48;;;11.60;44.30;;;;;;5053026;28;20120;-62
2023/12/17 09:21:26;;;;;;;34.55;29.35;;;11.70;44.10;;;;;;5052907;28;20360;-65
2023/12/17 09:23:52;;;;;;;32.55;29.15;;;11.90;44.20;;;;;;5052801;28;20028;-62
2023/12/17 09:26:20;;;;;;;32.15;28.83;;;11.90;44.10;;;;;;5052782;28;20100;-65
2023/12/17 09:28:47;;;;;;;30.23;27.00;;;12.00;44.20;;;;;;5052836;28;20123;-63
2023/12/17 09:31:13;;;;;;;27.35;24.42;;;12.10;43.90;;;;;;5052728;28;20356;-62
2023/12/17 09:33:39;;;;;;;25.90;23.15;;;12.10;44.60;;;;;;5052755;28;20024;-68
2023/12/17 09:36:07;;;;;;;27.25;24.33;;;12.00;44.50;;;;;;5052812;28;20032;-61
2023/12/17 09:38:32;;;;;;;43.08;32.08;;;11.90;44.30;;;;;;5052692;28;20032;-65
2023/12/17 09:40:58;;;;;;;31.25;27.58;;;11.80;43.90;;;;;;5052597;28;20025;-65
2023/12/17 09:43:25;;;;;;;35.10;31.30;;;11.80;44.20;;;;;;5052740;28;20052;-68
2023/12/17 09:45:53;;;;;;;37.85;33.75;;;12.00;43.70;;;;;;5052756;28;20025;-69
2023/12/17 09:48:19;;;;;;;46.55;41.47;;;12.20;43.50;;;;;;5052768;28;20067;-62
2023/12/17 09:50:45;;;;;;;52.67;46.92;;;12.50;43.20;;;;;;5052753;28;20025;-63
2023/12/17 09:53:10;;;;;;;47.30;42.22;;;12.60;42.00;;;;;;5051320;28;20116;-64
2023/12/17 09:55:37;;;;;;;48.15;42.90;;;12.70;41.70;;;;;;5052329;28;20021;-63
2023/12/17 09:58:06;;;;;;;48.13;43.13;;;12.80;42.70;;;;;;5052374;28;20049;-64
2023/12/17 10:00:33;;;;;;;49.38;44.17;;;12.80;42.80;;;;;;5053241;28;20445;-63
2023/12/17 10:03:04;;;;;;;49.70;44.47;;;12.70;42.60;;;;;;5056186;28;20021;-62
2023/12/17 10:05:30;;;;;;;49.83;44.45;;;12.80;41.80;;;;;;5056515;28;20029;-67
2023/12/17 10:07:55;;;;;;;52.72;47.38;;;12.80;41.00;;;;;;5056058;28;20048;-63
2023/12/17 10:10:21;;;;;;;53.33;47.83;;;12.80;42.10;;;;;;5056139;28;20452;-66
2023/12/17 10:12:47;;;;;;;52.70;47.20;;;12.90;41.40;;;;;;5056230;28;20049;-66
2023/12/17 10:15:13;;;;;;;52.90;47.28;;;13.10;42.20;;;;;;5056140;28;20084;-65
2023/12/17 10:17:40;;;;;;;53.42;47.70;;;13.10;41.60;;;;;;5055895;28;20024;-60
2023/12/17 10:20:07;;;;;;;52.88;47.28;;;13.10;41.20;;;;;;5056128;28;20021;-64
2023/12/17 10:22:33;;;;;;;50.65;45.33;;;13.20;42.30;;;;;;5055737;28;20070;-66
2023/12/17 10:24:59;;;;;;;47.80;42.88;;;13.20;42.90;;;;;;5054442;28;20104;-64
2023/12/17 10:27:24;;;;;;;46.35;41.47;;;13.20;40.70;;;;;;5055773;28;20098;-66
2023/12/17 10:29:52;;;;;;;45.53;40.72;;;13.30;41.50;;;;;;5055801;28;20025;-60
2023/12/17 10:32:23;;;;;;;42.85;38.45;;;13.40;42.00;;;;;;5055627;28;20104;-65
2023/12/17 10:34:50;;;;;;;39.63;35.30;;;13.50;40.90;;;;;;5055682;28;20021;-63
2023/12/17 10:37:19;;;;;;;36.92;33.08;;;13.50;41.00;;;;;;5055460;28;20048;-66
2023/12/17 10:39:51;;;;;;;34.83;31.23;;;13.70;40.30;;;;;;5055499;28;20052;-63
2023/12/17 10:42:17;;;;;;;30.77;27.63;;;13.70;40.20;;;;;;5055545;28;20483;-62
2023/12/17 10:44:47;;;;;;;28.83;25.83;;;13.80;39.40;;;;;;5055499;28;20060;-62
2023/12/17 10:47:16;;;;;;;26.17;23.58;;;13.70;40.50;;;;;;5055409;28;20104;-66
2023/12/17 10:49:43;;;;;;;28.30;25.35;;;13.80;41.10;;;;;;5055523;28;20514;-68
2023/12/17 10:52:09;;;;;;;25.50;22.88;;;13.70;40.20;;;;;;5055178;28;20033;-65
2023/12/17 10:54:35;;;;;;;25.65;22.80;;;13.60;41.40;;;;;;5055294;28;20017;-66
2023/12/17 10:57:03;;;;;;;24.10;21.60;;;13.70;41.30;;;;;;5055061;28;20120;-66
2023/12/17 10:59:32;;;;;;;25.15;22.75;;;13.70;41.70;;;;;;5055266;28;20086;-63
2023/12/17 11:02:01;;;;;;;26.52;23.52;;;13.60;41.50;;;;;;5055203;28;20108;-63
2023/12/17 11:04:27;;;;;;;24.10;21.70;;;13.40;42.80;;;;;;5055270;28;20016;-67
2023/12/17 11:06:53;;;;;;;23.27;20.90;;;13.20;42.40;;;;;;5054940;28;20104;-61
2023/12/17 11:09:19;;;;;;;22.95;20.52;;;13.30;41.50;;;;;;5054917;28;20451;-64
2023/12/17 11:11:51;;;;;;;21.17;19.10;;;13.30;42.00;;;;;;5053791;28;20023;-65
2023/12/17 11:14:16;;;;;;;22.70;20.35;;;13.40;42.30;;;;;;5061194;28;20115;-62
2023/12/17 11:16:42;;;;;;;22.05;19.60;;;13.60;41.90;;;;;;5074946;28;20063;-62
2023/12/17 11:19:12;;;;;;;22.90;20.65;;;13.70;41.60;;;;;;5074886;28;20028;-66
2023/12/17 11:21:40;;;;;;;21.30;19.20;;;13.70;41.60;;;;;;5074356;28;20043;-62
2023/12/17 11:24:07;;;;;;;21.65;19.45;;;13.70;42.30;;;;;;5074902;28;20495;-68
2023/12/17 11:26:45;;;;;;;22.42;20.33;;;13.90;41.60;;;;;;5074825;28;20576;-67
2023/12/17 11:29:39;;;;;;;25.75;23.17;;;14.20;41.20;;;;;;5074487;28;20040;-64
2023/12/17 11:32:09;;;;;;;26.13;23.48;;;14.30;40.60;;;;;;5074642;28;20043;-66
2023/12/17 11:34:36;;;;;;;24.10;21.70;;;14.30;41.10;;;;;;5074388;28;20024;-65
2023/12/17 11:37:03;;;;;;;23.35;21.05;;;14.30;41.40;;;;;;5074278;28;20021;-63
2023/12/17 11:39:30;;;;;;;27.02;24.23;;;14.30;41.30;;;;;;5074493;28;20036;-65
2023/12/17 11:41:56;;;;;;;30.42;27.42;;;14.30;41.40;;;;;;5074285;28;20462;-67
2023/12/17 11:44:22;;;;;;;25.33;22.83;;;14.20;42.40;;;;;;5073188;28;20021;-63
2023/12/17 11:46:49;;;;;;;24.15;21.88;;;14.20;42.40;;;;;;5074447;28;20017;-63
2023/12/17 11:49:23;;;;;;;25.33;22.92;;;14.20;42.30;;;;;;5074076;28;20046;-63
2023/12/17 11:51:50;;;;;;;26.48;23.80;;;14.00;41.90;;;;;;5073966;28;20111;-61
2023/12/17 11:54:20;;;;;;;52.30;46.70;;;14.20;41.70;;;;;;5074191;28;20016;-65
2023/12/17 11:56:48;;;;;;;38.40;34.50;;;14.10;41.40;;;;;;5073735;28;20055;-63
2023/12/17 11:59:14;;;;;;;37.65;34.03;;;13.70;42.70;;;;;;5074028;28;20020;-63
2023/12/17 12:01:41;;;;;;;40.50;36.45;;;13.60;43.60;;;;;;5072659;28;20478;-66
2023/12/17 12:04:07;;;;;;;43.38;38.92;;;13.30;42.70;;;;;;5073873;28;20386;-68
2023/12/17 12:06:33;;;;;;;41.00;36.92;;;12.80;44.40;;;;;;5073818;28;20021;-64
2023/12/17 12:08:59;;;;;;;41.13;36.88;;;12.40;46.10;;;;;;5073802;28;20029;-66
2023/12/17 12:11:34;;;;;;;38.35;34.45;;;12.50;46.40;;;;;;5073728;28;20029;-67
2023/12/17 12:14:00;;;;;;;36.78;33.08;;;12.60;46.50;;;;;;5073734;28;20067;-64
2023/12/17 12:16:26;;;;;;;35.95;32.33;;;12.50;45.30;;;;;;5073650;28;20016;-63
2023/12/17 12:19:02;;;;;;;33.28;29.98;;;12.10;46.40;;;;;;5073663;28;20367;-62
2023/12/17 12:21:28;;;;;;;36.30;32.70;;;11.80;47.00;;;;;;5073704;28;20020;-67
2023/12/17 12:23:55;;;;;;;32.60;29.30;;;11.50;48.10;;;;;;5072796;28;20475;-62
2023/12/17 12:26:23;;;;;;;42.63;38.15;;;12.00;46.60;;;;;;5073631;28;20017;-66